sensor_id;sensor_type;location;lat;lon;timestamp;temperature;humidity
45765;DHT22;31474;45.332;10.230;2023-04-08T00:00:23;9.90;96.30
45765;DHT22;31474;45.332;10.230;2023-04-08T00:02:49;9.80;96.40
45765;DHT22;31474;45.332;10.230;2023-04-08T00:05:15;9.80;96.40
45765;DHT22;31474;45.332;10.230;2023-04-08T00:07:40;9.80;96.20
45765;DHT22;31474;45.332;10.230;2023-04-08T00:10:07;9.80;96.10
45765;DHT22;31474;45.332;10.230;2023-04-08T00:12:32;9.80;96.20
45765;DHT22;31474;45.332;10.230;2023-04-08T00:14:58;9.90;96.20
45765;DHT22;31474;45.332;10.230;2023-04-08T00:17:24;9.90;96.30
45765;DHT22;31474;45.332;10.230;2023-04-08T00:19:50;9.90;96.20
45765;DHT22;31474;45.332;10.230;2023-04-08T00:22:16;9.90;96.20
45765;DHT22;31474;45.332;10.230;2023-04-08T00:24:42;9.90;96.10
45765;DHT22;31474;45.332;10.230;2023-04-08T00:27:07;9.90;96.00
45765;DHT22;31474;45.332;10.230;2023-04-08T00:29:33;9.90;96.10
45765;DHT22;31474;45.332;10.230;2023-04-08T00:31:59;9.80;96.00
45765;DHT22;31474;45.332;10.230;2023-04-08T00:34:24;9.80;95.90
45765;DHT22;31474;45.332;10.230;2023-04-08T00:36:51;9.80;95.90
45765;DHT22;31474;45.332;10.230;2023-04-08T00:39:16;9.80;96.10
45765;DHT22;31474;45.332;10.230;2023-04-08T00:41:42;9.80;96.10
45765;DHT22;31474;45.332;10.230;2023-04-08T00:44:08;9.90;96.10
45765;DHT22;31474;45.332;10.230;2023-04-08T00:46:36;9.90;96.10
45765;DHT22;31474;45.332;10.230;2023-04-08T00:49:03;9.90;96.10
45765;DHT22;31474;45.332;10.230;2023-04-08T00:51:29;9.80;96.10
45765;DHT22;31474;45.332;10.230;2023-04-08T00:53:55;9.80;96.00
45765;DHT22;31474;45.332;10.230;2023-04-08T00:56:22;9.70;96.00
45765;DHT22;31474;45.332;10.230;2023-04-08T00:58:49;9.60;96.10
45765;DHT22;31474;45.332;10.230;2023-04-08T01:01:50;9.60;96.30
45765;DHT22;31474;45.332;10.230;2023-04-08T01:04:28;9.50;96.50
45765;DHT22;31474;45.332;10.230;2023-04-08T01:09:25;9.60;96.70
45765;DHT22;31474;45.332;10.230;2023-04-08T01:11:53;9.60;97.10
45765;DHT22;31474;45.332;10.230;2023-04-08T01:14:25;9.50;97.10
45765;DHT22;31474;45.332;10.230;2023-04-08T01:16:54;9.50;97.30
45765;DHT22;31474;45.332;10.230;2023-04-08T01:19:28;9.50;97.20
45765;DHT22;31474;45.332;10.230;2023-04-08T01:22:22;9.50;97.40
45765;DHT22;31474;45.332;10.230;2023-04-08T01:24:49;9.50;97.10
45765;DHT22;31474;45.332;10.230;2023-04-08T01:27:16;9.50;97.20
45765;DHT22;31474;45.332;10.230;2023-04-08T01:29:42;9.40;97.10
45765;DHT22;31474;45.332;10.230;2023-04-08T01:32:10;9.40;97.20
45765;DHT22;31474;45.332;10.230;2023-04-08T01:34:37;9.40;97.60
45765;DHT22;31474;45.332;10.230;2023-04-08T01:37:05;9.50;97.50
45765;DHT22;31474;45.332;10.230;2023-04-08T01:39:32;9.50;97.60
45765;DHT22;31474;45.332;10.230;2023-04-08T01:41:59;9.50;97.80
45765;DHT22;31474;45.332;10.230;2023-04-08T01:44:27;9.50;97.80
45765;DHT22;31474;45.332;10.230;2023-04-08T01:46:53;9.50;97.80
45765;DHT22;31474;45.332;10.230;2023-04-08T01:49:19;9.50;97.90
45765;DHT22;31474;45.332;10.230;2023-04-08T01:51:47;9.50;97.70
45765;DHT22;31474;45.332;10.230;2023-04-08T01:54:13;9.50;97.60
45765;DHT22;31474;45.332;10.230;2023-04-08T01:56:41;9.50;97.30
45765;DHT22;31474;45.332;10.230;2023-04-08T01:59:12;9.60;97.20
45765;DHT22;31474;45.332;10.230;2023-04-08T02:01:39;9.70;97.10
45765;DHT22;31474;45.332;10.230;2023-04-08T02:04:05;9.70;96.90
45765;DHT22;31474;45.332;10.230;2023-04-08T02:06:31;9.70;97.00
45765;DHT22;31474;45.332;10.230;2023-04-08T02:08:58;9.70;97.10
45765;DHT22;31474;45.332;10.230;2023-04-08T02:11:24;9.70;97.20
45765;DHT22;31474;45.332;10.230;2023-04-08T02:13:50;9.80;97.20
45765;DHT22;31474;45.332;10.230;2023-04-08T02:16:50;9.80;97.30
45765;DHT22;31474;45.332;10.230;2023-04-08T02:19:24;9.80;97.70
45765;DHT22;31474;45.332;10.230;2023-04-08T02:21:57;9.80;97.40
45765;DHT22;31474;45.332;10.230;2023-04-08T02:24:25;9.80;97.30
45765;DHT22;31474;45.332;10.230;2023-04-08T02:26:52;9.90;97.30
45765;DHT22;31474;45.332;10.230;2023-04-08T02:29:20;9.90;97.30
45765;DHT22;31474;45.332;10.230;2023-04-08T02:31:47;9.90;96.80
45765;DHT22;31474;45.332;10.230;2023-04-08T02:34:15;9.90;96.70
45765;DHT22;31474;45.332;10.230;2023-04-08T02:36:42;9.90;96.50
45765;DHT22;31474;45.332;10.230;2023-04-08T02:39:10;9.90;96.20
45765;DHT22;31474;45.332;10.230;2023-04-08T02:41:36;9.90;96.30
45765;DHT22;31474;45.332;10.230;2023-04-08T02:44:01;9.90;96.20
45765;DHT22;31474;45.332;10.230;2023-04-08T02:46:27;9.90;96.20
45765;DHT22;31474;45.332;10.230;2023-04-08T02:48:52;9.90;96.30
45765;DHT22;31474;45.332;10.230;2023-04-08T02:51:18;9.90;96.20
45765;DHT22;31474;45.332;10.230;2023-04-08T02:53:44;9.90;96.00
45765;DHT22;31474;45.332;10.230;2023-04-08T02:56:10;9.90;96.00
45765;DHT22;31474;45.332;10.230;2023-04-08T02:58:36;9.80;96.00
45765;DHT22;31474;45.332;10.230;2023-04-08T03:01:01;9.70;95.90
45765;DHT22;31474;45.332;10.230;2023-04-08T03:03:27;9.70;96.10
45765;DHT22;31474;45.332;10.230;2023-04-08T03:05:55;9.60;96.30
45765;DHT22;31474;45.332;10.230;2023-04-08T03:08:21;9.60;96.70
45765;DHT22;31474;45.332;10.230;2023-04-08T03:10:47;9.50;96.90
45765;DHT22;31474;45.332;10.230;2023-04-08T03:13:13;9.40;96.90
45765;DHT22;31474;45.332;10.230;2023-04-08T03:15:39;9.40;96.80
45765;DHT22;31474;45.332;10.230;2023-04-08T03:18:05;9.30;97.00
45765;DHT22;31474;45.332;10.230;2023-04-08T03:20:31;9.40;97.20
45765;DHT22;31474;45.332;10.230;2023-04-08T03:22:57;9.40;97.30
45765;DHT22;31474;45.332;10.230;2023-04-08T03:25:22;9.50;97.40
45765;DHT22;31474;45.332;10.230;2023-04-08T03:27:48;9.50;97.40
45765;DHT22;31474;45.332;10.230;2023-04-08T03:30:13;9.60;97.30
45765;DHT22;31474;45.332;10.230;2023-04-08T03:32:39;9.70;97.20
45765;DHT22;31474;45.332;10.230;2023-04-08T03:35:05;9.70;97.00
45765;DHT22;31474;45.332;10.230;2023-04-08T03:37:31;9.70;96.90
45765;DHT22;31474;45.332;10.230;2023-04-08T03:39:57;9.80;96.90
45765;DHT22;31474;45.332;10.230;2023-04-08T03:42:23;9.80;96.90
45765;DHT22;31474;45.332;10.230;2023-04-08T03:44:48;9.80;97.20
45765;DHT22;31474;45.332;10.230;2023-04-08T03:47:14;9.80;97.10
45765;DHT22;31474;45.332;10.230;2023-04-08T03:49:40;9.80;97.00
45765;DHT22;31474;45.332;10.230;2023-04-08T03:52:06;9.80;97.10
45765;DHT22;31474;45.332;10.230;2023-04-08T03:54:31;9.80;97.00
45765;DHT22;31474;45.332;10.230;2023-04-08T03:56:57;9.70;96.90
45765;DHT22;31474;45.332;10.230;2023-04-08T03:59:23;9.70;96.90
45765;DHT22;31474;45.332;10.230;2023-04-08T04:01:49;9.70;96.90
45765;DHT22;31474;45.332;10.230;2023-04-08T04:04:15;9.70;97.00
45765;DHT22;31474;45.332;10.230;2023-04-08T04:06:41;9.60;96.90
45765;DHT22;31474;45.332;10.230;2023-04-08T04:09:07;9.60;96.90
45765;DHT22;31474;45.332;10.230;2023-04-08T04:11:35;9.50;96.80
45765;DHT22;31474;45.332;10.230;2023-04-08T04:14:01;9.50;96.80
45765;DHT22;31474;45.332;10.230;2023-04-08T04:16:27;9.40;96.70
45765;DHT22;31474;45.332;10.230;2023-04-08T04:18:52;9.50;96.70
45765;DHT22;31474;45.332;10.230;2023-04-08T04:21:18;9.40;96.80
45765;DHT22;31474;45.332;10.230;2023-04-08T04:23:44;9.40;97.00
45765;DHT22;31474;45.332;10.230;2023-04-08T04:26:10;9.30;97.20
45765;DHT22;31474;45.332;10.230;2023-04-08T04:28:36;9.20;97.00
45765;DHT22;31474;45.332;10.230;2023-04-08T04:31:02;9.10;97.20
45765;DHT22;31474;45.332;10.230;2023-04-08T04:33:28;9.10;97.20
45765;DHT22;31474;45.332;10.230;2023-04-08T04:35:54;9.10;97.00
45765;DHT22;31474;45.332;10.230;2023-04-08T04:38:20;9.10;96.90
45765;DHT22;31474;45.332;10.230;2023-04-08T04:40:46;9.00;96.90
45765;DHT22;31474;45.332;10.230;2023-04-08T04:43:11;9.10;97.20
45765;DHT22;31474;45.332;10.230;2023-04-08T04:45:37;9.10;97.20
45765;DHT22;31474;45.332;10.230;2023-04-08T04:48:03;8.90;97.30
45765;DHT22;31474;45.332;10.230;2023-04-08T04:50:28;8.90;97.30
45765;DHT22;31474;45.332;10.230;2023-04-08T04:52:54;8.80;97.10
45765;DHT22;31474;45.332;10.230;2023-04-08T04:55:20;8.80;97.50
45765;DHT22;31474;45.332;10.230;2023-04-08T04:57:47;8.80;97.50
45765;DHT22;31474;45.332;10.230;2023-04-08T05:00:13;8.80;97.70
45765;DHT22;31474;45.332;10.230;2023-04-08T05:02:39;8.80;97.70
45765;DHT22;31474;45.332;10.230;2023-04-08T05:05:05;8.80;97.70
45765;DHT22;31474;45.332;10.230;2023-04-08T05:07:34;8.80;97.80
45765;DHT22;31474;45.332;10.230;2023-04-08T05:09:59;8.80;97.60
45765;DHT22;31474;45.332;10.230;2023-04-08T05:12:26;8.80;97.70
45765;DHT22;31474;45.332;10.230;2023-04-08T05:14:51;8.80;97.60
45765;DHT22;31474;45.332;10.230;2023-04-08T05:17:17;8.80;97.60
45765;DHT22;31474;45.332;10.230;2023-04-08T05:19:42;8.90;97.60
45765;DHT22;31474;45.332;10.230;2023-04-08T05:22:08;8.80;97.40
45765;DHT22;31474;45.332;10.230;2023-04-08T05:24:34;8.80;97.70
45765;DHT22;31474;45.332;10.230;2023-04-08T05:27:00;8.80;97.90
45765;DHT22;31474;45.332;10.230;2023-04-08T05:29:26;8.80;97.60
45765;DHT22;31474;45.332;10.230;2023-04-08T05:31:52;8.80;97.70
45765;DHT22;31474;45.332;10.230;2023-04-08T05:34:18;8.70;97.80
45765;DHT22;31474;45.332;10.230;2023-04-08T05:36:48;8.80;97.70
45765;DHT22;31474;45.332;10.230;2023-04-08T05:39:17;8.80;97.50
45765;DHT22;31474;45.332;10.230;2023-04-08T05:41:43;8.80;97.50
45765;DHT22;31474;45.332;10.230;2023-04-08T05:44:09;8.60;97.70
45765;DHT22;31474;45.332;10.230;2023-04-08T05:46:36;8.60;97.80
45765;DHT22;31474;45.332;10.230;2023-04-08T05:49:01;8.70;97.90
45765;DHT22;31474;45.332;10.230;2023-04-08T05:51:27;8.70;98.00
45765;DHT22;31474;45.332;10.230;2023-04-08T05:53:53;8.70;98.40
45765;DHT22;31474;45.332;10.230;2023-04-08T05:56:18;8.80;98.70
45765;DHT22;31474;45.332;10.230;2023-04-08T05:58:44;8.80;98.50
45765;DHT22;31474;45.332;10.230;2023-04-08T06:01:10;8.90;98.60
45765;DHT22;31474;45.332;10.230;2023-04-08T06:03:35;8.90;98.90
45765;DHT22;31474;45.332;10.230;2023-04-08T06:06:01;9.10;98.80
45765;DHT22;31474;45.332;10.230;2023-04-08T06:08:26;9.20;99.00
45765;DHT22;31474;45.332;10.230;2023-04-08T06:10:52;9.30;98.70
45765;DHT22;31474;45.332;10.230;2023-04-08T06:13:18;9.40;98.60
45765;DHT22;31474;45.332;10.230;2023-04-08T06:15:45;9.50;98.50
45765;DHT22;31474;45.332;10.230;2023-04-08T06:18:11;9.60;98.40
45765;DHT22;31474;45.332;10.230;2023-04-08T06:20:36;9.80;98.20
45765;DHT22;31474;45.332;10.230;2023-04-08T06:23:02;10.00;98.10
45765;DHT22;31474;45.332;10.230;2023-04-08T06:25:27;10.20;97.90
45765;DHT22;31474;45.332;10.230;2023-04-08T06:27:53;10.30;97.80
45765;DHT22;31474;45.332;10.230;2023-04-08T06:30:18;10.30;97.80
45765;DHT22;31474;45.332;10.230;2023-04-08T06:32:45;10.50;98.20
45765;DHT22;31474;45.332;10.230;2023-04-08T06:35:12;10.60;98.10
45765;DHT22;31474;45.332;10.230;2023-04-08T06:37:37;10.80;97.50
45765;DHT22;31474;45.332;10.230;2023-04-08T06:40:06;10.90;97.30
45765;DHT22;31474;45.332;10.230;2023-04-08T06:42:32;11.10;97.30
45765;DHT22;31474;45.332;10.230;2023-04-08T06:44:58;11.20;97.10
45765;DHT22;31474;45.332;10.230;2023-04-08T06:47:23;11.30;97.50
45765;DHT22;31474;45.332;10.230;2023-04-08T06:49:49;11.50;97.20
45765;DHT22;31474;45.332;10.230;2023-04-08T06:52:15;11.60;96.90
45765;DHT22;31474;45.332;10.230;2023-04-08T06:54:41;11.80;97.20
45765;DHT22;31474;45.332;10.230;2023-04-08T06:57:07;11.90;97.20
45765;DHT22;31474;45.332;10.230;2023-04-08T06:59:32;12.10;96.70
45765;DHT22;31474;45.332;10.230;2023-04-08T07:01:58;12.10;96.40
45765;DHT22;31474;45.332;10.230;2023-04-08T07:04:24;12.10;96.30
45765;DHT22;31474;45.332;10.230;2023-04-08T07:06:51;12.30;96.70
45765;DHT22;31474;45.332;10.230;2023-04-08T07:09:17;12.40;96.40
45765;DHT22;31474;45.332;10.230;2023-04-08T07:11:43;12.60;96.60
45765;DHT22;31474;45.332;10.230;2023-04-08T07:14:08;12.80;96.10
45765;DHT22;31474;45.332;10.230;2023-04-08T07:16:34;12.90;95.90
45765;DHT22;31474;45.332;10.230;2023-04-08T07:19:00;13.10;95.50
45765;DHT22;31474;45.332;10.230;2023-04-08T07:21:26;13.20;95.30
45765;DHT22;31474;45.332;10.230;2023-04-08T07:23:52;13.20;95.30
45765;DHT22;31474;45.332;10.230;2023-04-08T07:26:17;13.20;95.10
45765;DHT22;31474;45.332;10.230;2023-04-08T07:28:43;13.30;94.70
45765;DHT22;31474;45.332;10.230;2023-04-08T07:31:13;13.30;95.10
45765;DHT22;31474;45.332;10.230;2023-04-08T07:33:40;13.40;95.70
45765;DHT22;31474;45.332;10.230;2023-04-08T07:36:07;13.70;94.90
45765;DHT22;31474;45.332;10.230;2023-04-08T07:38:33;13.90;95.30
45765;DHT22;31474;45.332;10.230;2023-04-08T07:40:58;13.90;94.60
45765;DHT22;31474;45.332;10.230;2023-04-08T07:43:24;14.10;95.30
45765;DHT22;31474;45.332;10.230;2023-04-08T07:45:50;14.30;94.90
45765;DHT22;31474;45.332;10.230;2023-04-08T07:48:15;14.30;94.60
45765;DHT22;31474;45.332;10.230;2023-04-08T07:50:41;14.50;94.10
45765;DHT22;31474;45.332;10.230;2023-04-08T07:53:07;14.70;93.80
45765;DHT22;31474;45.332;10.230;2023-04-08T07:55:33;14.60;93.90
45765;DHT22;31474;45.332;10.230;2023-04-08T07:57:59;14.80;94.50
45765;DHT22;31474;45.332;10.230;2023-04-08T08:00:26;14.80;93.80
45765;DHT22;31474;45.332;10.230;2023-04-08T08:02:51;14.90;93.80
45765;DHT22;31474;45.332;10.230;2023-04-08T08:05:17;15.10;93.90
45765;DHT22;31474;45.332;10.230;2023-04-08T08:07:43;15.30;93.60
45765;DHT22;31474;45.332;10.230;2023-04-08T08:10:09;15.40;93.50
45765;DHT22;31474;45.332;10.230;2023-04-08T08:12:35;15.60;93.10
45765;DHT22;31474;45.332;10.230;2023-04-08T08:15:02;15.70;92.70
45765;DHT22;31474;45.332;10.230;2023-04-08T08:17:27;15.60;92.50
45765;DHT22;31474;45.332;10.230;2023-04-08T08:19:55;15.70;92.60
45765;DHT22;31474;45.332;10.230;2023-04-08T08:22:21;15.70;92.40
45765;DHT22;31474;45.332;10.230;2023-04-08T08:24:47;15.80;92.50
45765;DHT22;31474;45.332;10.230;2023-04-08T08:27:12;15.70;92.10
45765;DHT22;31474;45.332;10.230;2023-04-08T08:29:38;15.90;92.80
45765;DHT22;31474;45.332;10.230;2023-04-08T08:32:04;16.10;92.20
45765;DHT22;31474;45.332;10.230;2023-04-08T08:34:30;16.30;92.10
45765;DHT22;31474;45.332;10.230;2023-04-08T08:36:56;16.40;91.10
45765;DHT22;31474;45.332;10.230;2023-04-08T08:39:22;16.30;91.20
45765;DHT22;31474;45.332;10.230;2023-04-08T08:41:48;16.40;91.70
45765;DHT22;31474;45.332;10.230;2023-04-08T08:44:14;16.60;91.80
45765;DHT22;31474;45.332;10.230;2023-04-08T08:46:43;16.70;91.10
45765;DHT22;31474;45.332;10.230;2023-04-08T08:49:09;16.80;90.60
45765;DHT22;31474;45.332;10.230;2023-04-08T08:51:37;16.90;90.50
45765;DHT22;31474;45.332;10.230;2023-04-08T08:54:03;16.80;90.50
45765;DHT22;31474;45.332;10.230;2023-04-08T08:56:29;16.90;90.50
45765;DHT22;31474;45.332;10.230;2023-04-08T08:58:55;17.00;90.70
45765;DHT22;31474;45.332;10.230;2023-04-08T09:06:36;17.20;89.40
45765;DHT22;31474;45.332;10.230;2023-04-08T09:09:02;17.40;90.60
45765;DHT22;31474;45.332;10.230;2023-04-08T09:11:30;17.50;90.40
45765;DHT22;31474;45.332;10.230;2023-04-08T09:13:56;17.60;88.30
45765;DHT22;31474;45.332;10.230;2023-04-08T09:16:22;17.70;87.60
45765;DHT22;31474;45.332;10.230;2023-04-08T09:18:48;17.80;87.00
45765;DHT22;31474;45.332;10.230;2023-04-08T09:21:15;17.70;87.20
45765;DHT22;31474;45.332;10.230;2023-04-08T09:23:48;17.80;87.40
45765;DHT22;31474;45.332;10.230;2023-04-08T09:26:22;17.60;86.00
45765;DHT22;31474;45.332;10.230;2023-04-08T09:31:28;17.50;86.00
45765;DHT22;31474;45.332;10.230;2023-04-08T09:33:58;17.60;87.80
45765;DHT22;31474;45.332;10.230;2023-04-08T09:36:25;17.70;86.20
45765;DHT22;31474;45.332;10.230;2023-04-08T09:38:54;17.60;86.10
45765;DHT22;31474;45.332;10.230;2023-04-08T09:41:21;17.70;87.00
45765;DHT22;31474;45.332;10.230;2023-04-08T09:43:50;17.70;86.10
45765;DHT22;31474;45.332;10.230;2023-04-08T09:46:18;17.80;86.40
45765;DHT22;31474;45.332;10.230;2023-04-08T09:49:05;17.60;85.40
45765;DHT22;31474;45.332;10.230;2023-04-08T09:51:48;17.60;89.00
45765;DHT22;31474;45.332;10.230;2023-04-08T09:54:18;17.90;87.30
45765;DHT22;31474;45.332;10.230;2023-04-08T09:56:58;18.20;90.00
45765;DHT22;31474;45.332;10.230;2023-04-08T09:59:29;18.00;84.50
45765;DHT22;31474;45.332;10.230;2023-04-08T10:02:00;18.00;84.30
45765;DHT22;31474;45.332;10.230;2023-04-08T10:04:26;18.10;84.70
45765;DHT22;31474;45.332;10.230;2023-04-08T10:06:56;18.20;85.70
45765;DHT22;31474;45.332;10.230;2023-04-08T10:09:23;18.20;86.00
45765;DHT22;31474;45.332;10.230;2023-04-08T10:11:49;18.20;85.50
45765;DHT22;31474;45.332;10.230;2023-04-08T10:14:15;18.10;85.00
45765;DHT22;31474;45.332;10.230;2023-04-08T10:16:41;18.00;85.10
45765;DHT22;31474;45.332;10.230;2023-04-08T10:19:37;18.20;86.60
45765;DHT22;31474;45.332;10.230;2023-04-08T10:27:41;18.50;82.80
45765;DHT22;31474;45.332;10.230;2023-04-08T10:32:55;18.30;81.40
45765;DHT22;31474;45.332;10.230;2023-04-08T10:35:31;18.50;86.70
45765;DHT22;31474;45.332;10.230;2023-04-08T10:37:59;18.60;82.40
45765;DHT22;31474;45.332;10.230;2023-04-08T10:40:25;18.60;83.40
45765;DHT22;31474;45.332;10.230;2023-04-08T10:42:54;18.60;82.90
45765;DHT22;31474;45.332;10.230;2023-04-08T10:45:20;18.40;80.80
45765;DHT22;31474;45.332;10.230;2023-04-08T10:47:46;18.30;81.70
45765;DHT22;31474;45.332;10.230;2023-04-08T10:50:19;18.20;81.30
45765;DHT22;31474;45.332;10.230;2023-04-08T10:52:52;18.30;82.10
45765;DHT22;31474;45.332;10.230;2023-04-08T10:55:25;18.40;84.50
45765;DHT22;31474;45.332;10.230;2023-04-08T10:57:51;18.70;85.50
45765;DHT22;31474;45.332;10.230;2023-04-08T11:00:17;18.80;83.30
45765;DHT22;31474;45.332;10.230;2023-04-08T11:02:43;18.90;83.90
45765;DHT22;31474;45.332;10.230;2023-04-08T11:05:09;19.00;85.40
45765;DHT22;31474;45.332;10.230;2023-04-08T11:07:41;19.00;85.40
45765;DHT22;31474;45.332;10.230;2023-04-08T11:10:10;19.00;81.40
45765;DHT22;31474;45.332;10.230;2023-04-08T11:12:36;19.00;83.40
45765;DHT22;31474;45.332;10.230;2023-04-08T11:15:03;19.10;83.00
45765;DHT22;31474;45.332;10.230;2023-04-08T11:17:30;19.20;81.90
45765;DHT22;31474;45.332;10.230;2023-04-08T11:19:56;19.20;83.40
45765;DHT22;31474;45.332;10.230;2023-04-08T11:22:27;19.20;80.70
45765;DHT22;31474;45.332;10.230;2023-04-08T11:24:54;19.10;80.80
45765;DHT22;31474;45.332;10.230;2023-04-08T11:27:20;19.20;82.30
45765;DHT22;31474;45.332;10.230;2023-04-08T11:29:56;19.20;80.70
45765;DHT22;31474;45.332;10.230;2023-04-08T11:32:22;19.20;80.60
45765;DHT22;31474;45.332;10.230;2023-04-08T11:34:48;19.30;80.50
45765;DHT22;31474;45.332;10.230;2023-04-08T11:37:14;19.30;83.00
45765;DHT22;31474;45.332;10.230;2023-04-08T11:39:43;19.30;81.30
45765;DHT22;31474;45.332;10.230;2023-04-08T11:42:28;19.40;79.20
45765;DHT22;31474;45.332;10.230;2023-04-08T11:44:54;19.20;77.20
45765;DHT22;31474;45.332;10.230;2023-04-08T11:47:20;19.20;79.70
45765;DHT22;31474;45.332;10.230;2023-04-08T11:49:46;19.10;79.00
45765;DHT22;31474;45.332;10.230;2023-04-08T11:52:13;19.00;78.20
45765;DHT22;31474;45.332;10.230;2023-04-08T11:54:41;18.90;80.10
45765;DHT22;31474;45.332;10.230;2023-04-08T11:57:08;18.90;77.40
45765;DHT22;31474;45.332;10.230;2023-04-08T11:59:36;19.00;79.50
45765;DHT22;31474;45.332;10.230;2023-04-08T12:02:03;19.00;79.20
45765;DHT22;31474;45.332;10.230;2023-04-08T12:04:29;19.10;79.80
45765;DHT22;31474;45.332;10.230;2023-04-08T12:06:55;19.00;78.10
45765;DHT22;31474;45.332;10.230;2023-04-08T12:09:21;18.90;78.20
45765;DHT22;31474;45.332;10.230;2023-04-08T12:11:47;18.80;75.50
45765;DHT22;31474;45.332;10.230;2023-04-08T12:14:13;18.70;78.90
45765;DHT22;31474;45.332;10.230;2023-04-08T12:16:38;18.70;79.30
45765;DHT22;31474;45.332;10.230;2023-04-08T12:19:04;18.80;79.70
45765;DHT22;31474;45.332;10.230;2023-04-08T12:21:30;18.90;80.00
45765;DHT22;31474;45.332;10.230;2023-04-08T12:23:56;18.90;79.80
45765;DHT22;31474;45.332;10.230;2023-04-08T12:26:22;18.90;78.70
45765;DHT22;31474;45.332;10.230;2023-04-08T12:28:48;18.90;79.30
45765;DHT22;31474;45.332;10.230;2023-04-08T12:31:14;19.00;78.80
45765;DHT22;31474;45.332;10.230;2023-04-08T12:33:40;19.00;79.10
45765;DHT22;31474;45.332;10.230;2023-04-08T12:36:06;19.00;80.80
45765;DHT22;31474;45.332;10.230;2023-04-08T12:38:31;19.20;81.90
45765;DHT22;31474;45.332;10.230;2023-04-08T12:40:58;19.20;79.20
45765;DHT22;31474;45.332;10.230;2023-04-08T12:43:23;19.20;78.50
45765;DHT22;31474;45.332;10.230;2023-04-08T12:45:50;19.10;77.90
45765;DHT22;31474;45.332;10.230;2023-04-08T12:48:16;18.90;78.00
45765;DHT22;31474;45.332;10.230;2023-04-08T12:50:41;18.80;78.30
45765;DHT22;31474;45.332;10.230;2023-04-08T12:53:07;18.70;77.70
45765;DHT22;31474;45.332;10.230;2023-04-08T12:55:33;18.50;77.20
45765;DHT22;31474;45.332;10.230;2023-04-08T12:57:58;18.50;77.40
45765;DHT22;31474;45.332;10.230;2023-04-08T13:00:24;18.60;80.10
45765;DHT22;31474;45.332;10.230;2023-04-08T13:02:51;18.90;81.80
45765;DHT22;31474;45.332;10.230;2023-04-08T13:05:16;19.00;78.90
45765;DHT22;31474;45.332;10.230;2023-04-08T13:07:42;19.10;79.20
45765;DHT22;31474;45.332;10.230;2023-04-08T13:10:08;19.10;76.30
45765;DHT22;31474;45.332;10.230;2023-04-08T13:12:34;18.90;76.10
45765;DHT22;31474;45.332;10.230;2023-04-08T13:14:59;18.70;77.50
45765;DHT22;31474;45.332;10.230;2023-04-08T13:17:26;18.70;77.90
45765;DHT22;31474;45.332;10.230;2023-04-08T13:19:52;18.70;79.00
45765;DHT22;31474;45.332;10.230;2023-04-08T13:22:18;18.80;78.00
45765;DHT22;31474;45.332;10.230;2023-04-08T13:24:43;18.90;77.50
45765;DHT22;31474;45.332;10.230;2023-04-08T13:27:09;18.90;77.40
45765;DHT22;31474;45.332;10.230;2023-04-08T13:29:35;18.70;75.50
45765;DHT22;31474;45.332;10.230;2023-04-08T13:32:00;18.70;76.70
45765;DHT22;31474;45.332;10.230;2023-04-08T13:34:26;18.70;78.20
45765;DHT22;31474;45.332;10.230;2023-04-08T13:36:52;18.70;78.30
45765;DHT22;31474;45.332;10.230;2023-04-08T13:39:18;18.90;78.10
45765;DHT22;31474;45.332;10.230;2023-04-08T13:41:43;18.90;78.10
45765;DHT22;31474;45.332;10.230;2023-04-08T13:44:09;18.80;78.50
45765;DHT22;31474;45.332;10.230;2023-04-08T13:46:35;18.80;76.70
45765;DHT22;31474;45.332;10.230;2023-04-08T13:49:00;18.80;78.00
45765;DHT22;31474;45.332;10.230;2023-04-08T13:51:27;18.90;78.60
45765;DHT22;31474;45.332;10.230;2023-04-08T13:53:53;18.90;79.40
45765;DHT22;31474;45.332;10.230;2023-04-08T13:56:19;19.00;80.40
45765;DHT22;31474;45.332;10.230;2023-04-08T13:58:45;19.00;78.50
45765;DHT22;31474;45.332;10.230;2023-04-08T14:01:11;19.00;79.40
45765;DHT22;31474;45.332;10.230;2023-04-08T14:03:37;18.90;78.80
45765;DHT22;31474;45.332;10.230;2023-04-08T14:06:03;18.90;79.10
45765;DHT22;31474;45.332;10.230;2023-04-08T14:08:28;18.90;78.80
45765;DHT22;31474;45.332;10.230;2023-04-08T14:10:55;18.90;78.70
45765;DHT22;31474;45.332;10.230;2023-04-08T14:13:21;18.90;78.00
45765;DHT22;31474;45.332;10.230;2023-04-08T14:15:47;18.90;77.50
45765;DHT22;31474;45.332;10.230;2023-04-08T14:18:14;18.90;78.00
45765;DHT22;31474;45.332;10.230;2023-04-08T14:20:42;18.90;78.40
45765;DHT22;31474;45.332;10.230;2023-04-08T14:23:08;18.90;78.20
45765;DHT22;31474;45.332;10.230;2023-04-08T14:25:34;19.00;78.10
45765;DHT22;31474;45.332;10.230;2023-04-08T14:28:00;18.90;78.30
45765;DHT22;31474;45.332;10.230;2023-04-08T14:30:26;19.00;79.40
45765;DHT22;31474;45.332;10.230;2023-04-08T14:32:51;19.00;78.60
45765;DHT22;31474;45.332;10.230;2023-04-08T14:35:17;19.00;77.30
45765;DHT22;31474;45.332;10.230;2023-04-08T14:37:43;19.00;78.30
45765;DHT22;31474;45.332;10.230;2023-04-08T14:40:09;18.90;78.00
45765;DHT22;31474;45.332;10.230;2023-04-08T14:42:35;18.90;76.90
45765;DHT22;31474;45.332;10.230;2023-04-08T14:45:01;18.70;77.00
45765;DHT22;31474;45.332;10.230;2023-04-08T14:47:27;18.70;77.40
45765;DHT22;31474;45.332;10.230;2023-04-08T14:49:53;18.80;77.90
45765;DHT22;31474;45.332;10.230;2023-04-08T14:52:19;18.70;76.00
45765;DHT22;31474;45.332;10.230;2023-04-08T14:54:44;18.70;76.80
45765;DHT22;31474;45.332;10.230;2023-04-08T14:57:11;18.70;77.50
45765;DHT22;31474;45.332;10.230;2023-04-08T14:59:37;18.80;77.70
45765;DHT22;31474;45.332;10.230;2023-04-08T15:02:03;18.80;77.20
45765;DHT22;31474;45.332;10.230;2023-04-08T15:04:28;18.80;78.00
45765;DHT22;31474;45.332;10.230;2023-04-08T15:06:54;18.90;77.60
45765;DHT22;31474;45.332;10.230;2023-04-08T15:09:20;18.80;77.60
45765;DHT22;31474;45.332;10.230;2023-04-08T15:11:46;18.80;77.40
45765;DHT22;31474;45.332;10.230;2023-04-08T15:14:11;18.70;78.50
45765;DHT22;31474;45.332;10.230;2023-04-08T15:16:37;18.70;78.30
45765;DHT22;31474;45.332;10.230;2023-04-08T15:19:02;18.60;77.80
45765;DHT22;31474;45.332;10.230;2023-04-08T15:21:28;18.60;78.40
45765;DHT22;31474;45.332;10.230;2023-04-08T15:23:55;18.60;79.70
45765;DHT22;31474;45.332;10.230;2023-04-08T15:26:22;18.60;78.90
45765;DHT22;31474;45.332;10.230;2023-04-08T15:28:49;18.60;78.20
45765;DHT22;31474;45.332;10.230;2023-04-08T15:31:15;18.50;77.60
45765;DHT22;31474;45.332;10.230;2023-04-08T15:33:41;18.50;78.60
45765;DHT22;31474;45.332;10.230;2023-04-08T15:36:10;18.50;78.10
45765;DHT22;31474;45.332;10.230;2023-04-08T15:38:35;18.50;78.70